Time;durP1;ratioP1;P1;durP2;ratioP2;P2;SDS_P1;SDS_P2;PMS_P1;PMS_P2;Temp;Humidity;BMP_temperature;BMP_pressure;BME280_temperature;BME280_humidity;BME280_pressure;Samples;Min_cycle;Max_cycle;Signal;HPM_P1;HPM_P2
2024/03/25 00:01:07;;;;;;;3.60;1.13;;;;;;;;;;4962783;28;20027;-60
2024/03/25 00:03:32;;;;;;;3.50;1.20;;;;;;;;;;4967324;28;20026;-59
2024/03/25 00:05:58;;;;;;;3.47;1.10;;;;;;;;;;4968086;28;20043;-61
2024/03/25 00:08:23;;;;;;;3.60;1.10;;;;;;;;;;4968957;28;20403;-60
2024/03/25 00:10:48;;;;;;;3.83;1.10;;;;;;;;;;4973271;28;20088;-62
2024/03/25 00:13:13;;;;;;;3.70;1.30;;;;;;;;;;4975351;28;20134;-62
2024/03/25 00:15:39;;;;;;;3.80;1.30;;;;;;;;;;4966542;28;20027;-61
2024/03/25 00:18:05;;;;;;;3.80;1.60;;;;;;;;;;4985026;28;20016;-60
2024/03/25 00:20:30;;;;;;;4.20;1.30;;;;;;;;;;4969097;28;20110;-61
2024/03/25 00:22:55;;;;;;;4.40;1.60;;;;;;;;;;4966499;28;20506;-61
2024/03/25 00:25:20;;;;;;;6.20;1.60;;;;;;;;;;4957856;28;20023;-62
2024/03/25 00:27:45;;;;;;;4.30;1.53;;;;;;;;;;4973097;28;20019;-61
2024/03/25 00:30:11;;;;;;;4.47;1.65;;;;;;;;;;4970416;28;20451;-66
2024/03/25 00:32:36;;;;;;;4.63;1.60;;;;;;;;;;4965979;28;20023;-60
2024/03/25 00:35:01;;;;;;;4.00;1.40;;;;;;;;;;4968761;28;20110;-62
2024/03/25 00:37:27;;;;;;;4.67;1.37;;;;;;;;;;4968435;28;20498;-62
2024/03/25 00:39:52;;;;;;;3.60;1.40;;;;;;;;;;4968673;28;20061;-61
2024/03/25 00:42:17;;;;;;;4.85;1.30;;;;;;;;;;4967518;28;20019;-61
2024/03/25 00:44:42;;;;;;;3.80;1.20;;;;;;;;;;4973807;28;20030;-62
2024/03/25 00:47:07;;;;;;;4.57;1.43;;;;;;;;;;4979092;28;20027;-60
2024/03/25 00:49:32;;;;;;;5.28;1.33;;;;;;;;;;4979895;28;20042;-61
2024/03/25 00:51:57;;;;;;;4.40;1.40;;;;;;;;;;4986272;28;20031;-61
2024/03/25 00:54:23;;;;;;;4.30;1.40;;;;;;;;;;4961233;28;20088;-62
2024/03/25 00:56:49;;;;;;;3.55;1.30;;;;;;;;;;4969067;28;20053;-61
2024/03/25 00:59:14;;;;;;;4.38;1.45;;;;;;;;;;4970419;28;20375;-61
2024/03/25 01:01:39;;;;;;;4.67;1.47;;;;;;;;;;4975401;28;20019;-62
2024/03/25 01:04:04;;;;;;;4.63;1.30;;;;;;;;;;4966785;28;20457;-61
2024/03/25 01:06:30;;;;;;;6.80;1.40;;;;;;;;;;4966055;28;20475;-62
2024/03/25 01:08:55;;;;;;;4.05;1.58;;;;;;;;;;4975353;28;20088;-62
2024/03/25 01:11:21;;;;;;;5.53;1.73;;;;;;;;;;4970594;28;20067;-61
2024/03/25 01:13:46;;;;;;;5.78;1.70;;;;;;;;;;4963487;28;20031;-63
2024/03/25 01:16:12;;;;;;;4.80;1.90;;;;;;;;;;4971319;28;20026;-61
2024/03/25 01:18:37;;;;;;;4.75;1.80;;;;;;;;;;4989078;28;20290;-60
2024/03/25 01:21:02;;;;;;;4.60;1.70;;;;;;;;;;4970709;28;20159;-60
2024/03/25 01:23:28;;;;;;;4.80;1.60;;;;;;;;;;4968594;28;20084;-62
2024/03/25 01:25:53;;;;;;;4.57;1.73;;;;;;;;;;4970306;28;20438;-61
2024/03/25 01:28:18;;;;;;;5.17;1.90;;;;;;;;;;4980499;28;20778;-61
2024/03/25 01:30:43;;;;;;;4.77;1.70;;;;;;;;;;5001832;28;20132;-61
2024/03/25 01:33:08;;;;;;;4.50;1.80;;;;;;;;;;4976618;28;20054;-60
2024/03/25 01:35:33;;;;;;;6.70;1.75;;;;;;;;;;4960906;28;20027;-61
2024/03/25 01:37:59;;;;;;;4.60;1.50;;;;;;;;;;4970134;28;20043;-62
2024/03/25 01:40:24;;;;;;;2.90;1.00;;;;;;;;;;4967121;28;20031;-61
2024/03/25 01:42:59;;;;;;;3.58;1.17;;;;;;;;;;4961499;28;20490;-62
2024/03/25 01:45:24;;;;;;;4.13;1.35;;;;;;;;;;4956963;28;20033;-60
2024/03/25 01:47:50;;;;;;;3.08;0.90;;;;;;;;;;4984880;28;20022;-61
2024/03/25 01:50:16;;;;;;;3.10;1.02;;;;;;;;;;4975240;28;20057;-60
2024/03/25 01:52:41;;;;;;;2.88;1.00;;;;;;;;;;4970725;28;20489;-59
2024/03/25 01:55:09;;;;;;;2.83;1.00;;;;;;;;;;4981298;28;20018;-61
2024/03/25 01:57:35;;;;;;;2.85;0.80;;;;;;;;;;4958622;28;20121;-61
2024/03/25 02:00:00;;;;;;;3.70;0.93;;;;;;;;;;4960719;28;20581;-62
2024/03/25 02:02:25;;;;;;;3.30;1.03;;;;;;;;;;4979100;28;20043;-61
2024/03/25 02:04:51;;;;;;;3.45;1.10;;;;;;;;;;4971158;28;20442;-61
2024/03/25 02:07:16;;;;;;;3.80;1.17;;;;;;;;;;4956027;28;20022;-61
2024/03/25 02:09:41;;;;;;;2.87;0.90;;;;;;;;;;4976039;28;20027;-62
2024/03/25 02:12:09;;;;;;;3.50;0.95;;;;;;;;;;4974258;28;20042;-60
2024/03/25 02:14:34;;;;;;;3.45;1.00;;;;;;;;;;4986796;28;20038;-61
2024/03/25 02:16:59;;;;;;;4.03;1.10;;;;;;;;;;4986092;28;20041;-60
2024/03/25 02:19:24;;;;;;;4.00;1.10;;;;;;;;;;4970284;28;20101;-60
2024/03/25 02:21:49;;;;;;;4.03;1.03;;;;;;;;;;4976875;28;20087;-60
2024/03/25 02:24:15;;;;;;;4.10;1.30;;;;;;;;;;4967543;28;20088;-61
2024/03/25 02:26:40;;;;;;;4.22;1.42;;;;;;;;;;4966349;28;20083;-61
2024/03/25 02:29:08;;;;;;;4.33;1.70;;;;;;;;;;4959118;28;20033;-61
2024/03/25 02:31:33;;;;;;;4.25;1.63;;;;;;;;;;4969211;28;20479;-62
2024/03/25 02:33:59;;;;;;;4.20;1.60;;;;;;;;;;4969909;28;20026;-60
2024/03/25 02:36:24;;;;;;;5.43;2.13;;;;;;;;;;4969846;28;20360;-60
2024/03/25 02:38:49;;;;;;;4.20;2.00;;;;;;;;;;4975245;28;20026;-61
2024/03/25 02:41:14;;;;;;;5.70;2.50;;;;;;;;;;4983035;28;20492;-60
2024/03/25 02:43:39;;;;;;;5.97;2.60;;;;;;;;;;4972984;28;20018;-60
2024/03/25 02:46:04;;;;;;;5.35;2.47;;;;;;;;;;4968742;28;20161;-61
2024/03/25 02:48:30;;;;;;;4.90;2.30;;;;;;;;;;4969296;28;20018;-60
2024/03/25 02:50:55;;;;;;;5.75;2.42;;;;;;;;;;4969339;28;20057;-60
2024/03/25 02:53:20;;;;;;;6.10;2.35;;;;;;;;;;4962176;28;20027;-61
2024/03/25 02:55:45;;;;;;;6.40;2.40;;;;;;;;;;4967324;28;20369;-61
2024/03/25 02:58:11;;;;;;;5.43;2.38;;;;;;;;;;4976746;28;20885;-61
2024/03/25 03:00:37;;;;;;;8.32;2.33;;;;;;;;;;4970384;28;20480;-60
2024/03/25 03:03:02;;;;;;;7.55;2.53;;;;;;;;;;4970062;28;20023;-60
2024/03/25 03:05:27;;;;;;;6.00;2.70;;;;;;;;;;4968488;28;20069;-60
2024/03/25 03:07:53;;;;;;;7.23;2.70;;;;;;;;;;4967751;28;20034;-59
2024/03/25 03:10:18;;;;;;;6.05;2.33;;;;;;;;;;4969472;28;20058;-61
2024/03/25 03:12:43;;;;;;;6.60;2.35;;;;;;;;;;4971161;28;20109;-61
2024/03/25 03:15:08;;;;;;;5.20;2.43;;;;;;;;;;5046466;28;20028;-62
2024/03/25 03:17:33;;;;;;;5.63;2.40;;;;;;;;;;5072494;28;20490;-60
2024/03/25 03:19:58;;;;;;;5.65;2.40;;;;;;;;;;5072999;28;20423;-60
2024/03/25 03:22:24;;;;;;;9.00;2.60;;;;;;;;;;5069772;28;20024;-61
2024/03/25 03:24:49;;;;;;;7.23;2.60;;;;;;;;;;5071399;28;20016;-61
2024/03/25 03:27:14;;;;;;;7.13;2.70;;;;;;;;;;5054154;28;20108;-60
2024/03/25 03:29:40;;;;;;;7.25;2.55;;;;;;;;;;4973487;28;20026;-62
2024/03/25 03:32:05;;;;;;;6.05;2.35;;;;;;;;;;4974300;28;20035;-63
2024/03/25 03:34:30;;;;;;;5.43;2.27;;;;;;;;;;4970431;28;20065;-61
2024/03/25 03:36:55;;;;;;;7.97;2.67;;;;;;;;;;4971779;28;20079;-62
2024/03/25 03:39:20;;;;;;;6.05;2.28;;;;;;;;;;4969541;28;20445;-60
2024/03/25 03:41:46;;;;;;;6.90;2.50;;;;;;;;;;4974768;28;20106;-60
2024/03/25 03:44:12;;;;;;;7.85;2.47;;;;;;;;;;4984283;28;20508;-60
2024/03/25 03:46:38;;;;;;;5.70;2.20;;;;;;;;;;4997237;28;20072;-61
2024/03/25 03:49:03;;;;;;;7.40;2.55;;;;;;;;;;4988120;28;20022;-60
2024/03/25 03:51:28;;;;;;;10.00;2.10;;;;;;;;;;4989295;28;20025;-61
2024/03/25 03:53:53;;;;;;;6.23;2.23;;;;;;;;;;4967446;28;20011;-61
2024/03/25 03:56:18;;;;;;;5.60;2.15;;;;;;;;;;4955162;28;20498;-62
2024/03/25 03:58:43;;;;;;;5.88;2.10;;;;;;;;;;4970303;28;20027;-61
2024/03/25 04:01:18;;;;;;;5.25;2.00;;;;;;;;;;4974420;28;20034;-61
2024/03/25 04:03:43;;;;;;;4.90;2.10;;;;;;;;;;4981375;28;20096;-61
2024/03/25 04:06:10;;;;;;;8.10;2.40;;;;;;;;;;4990295;28;20034;-62
2024/03/25 04:08:35;;;;;;;7.47;2.55;;;;;;;;;;4993917;28;20448;-61
2024/03/25 04:11:01;;;;;;;6.00;2.40;;;;;;;;;;4986375;28;20027;-61
2024/03/25 04:13:26;;;;;;;9.50;2.35;;;;;;;;;;5028039;28;20029;-61
2024/03/25 04:15:52;;;;;;;6.45;2.38;;;;;;;;;;4982248;28;20023;-61
2024/03/25 04:18:19;;;;;;;7.95;2.47;;;;;;;;;;4972292;28;20506;-61
2024/03/25 04:20:44;;;;;;;8.35;2.30;;;;;;;;;;4989450;28;20030;-62
2024/03/25 04:23:09;;;;;;;6.40;2.40;;;;;;;;;;4980727;28;20459;-61
2024/03/25 04:25:37;;;;;;;5.88;1.95;;;;;;;;;;4982023;28;20053;-61
2024/03/25 04:28:02;;;;;;;4.85;1.90;;;;;;;;;;4985019;28;20027;-62
2024/03/25 04:30:27;;;;;;;6.60;2.17;;;;;;;;;;4983565;28;20053;-63
2024/03/25 04:32:53;;;;;;;6.03;2.00;;;;;;;;;;4979984;28;20019;-62
2024/03/25 04:35:18;;;;;;;5.70;1.92;;;;;;;;;;4979114;28;20011;-62
2024/03/25 04:37:43;;;;;;;5.75;1.80;;;;;;;;;;5023242;28;20166;-62
2024/03/25 04:40:09;;;;;;;6.60;2.00;;;;;;;;;;5072044;28;20025;-61
2024/03/25 04:42:34;;;;;;;5.53;2.17;;;;;;;;;;4953770;28;20023;-61
2024/03/25 04:44:59;;;;;;;5.22;2.15;;;;;;;;;;4952073;28;20038;-61
2024/03/25 04:47:24;;;;;;;5.97;2.30;;;;;;;;;;4973987;28;20033;-62
2024/03/25 04:49:49;;;;;;;8.05;2.10;;;;;;;;;;4972650;28;20035;-62
2024/03/25 04:52:18;;;;;;;6.60;2.25;;;;;;;;;;4972485;28;20378;-63
2024/03/25 04:54:43;;;;;;;5.95;2.35;;;;;;;;;;4988152;28;20110;-60
2024/03/25 04:57:09;;;;;;;5.07;2.22;;;;;;;;;;4991573;28;20113;-61
2024/03/25 04:59:34;;;;;;;5.60;2.10;;;;;;;;;;4974484;28;20027;-62
2024/03/25 05:01:59;;;;;;;6.18;2.05;;;;;;;;;;4973168;28;20505;-60
2024/03/25 05:04:24;;;;;;;4.40;1.90;;;;;;;;;;4993328;28;20026;-61
2024/03/25 05:06:49;;;;;;;5.33;1.80;;;;;;;;;;5014308;28;20025;-61
2024/03/25 05:09:16;;;;;;;6.20;2.00;;;;;;;;;;4983731;28;20445;-62
2024/03/25 05:11:41;;;;;;;6.35;2.20;;;;;;;;;;5012535;28;20539;-60
2024/03/25 05:14:06;;;;;;;5.15;1.65;;;;;;;;;;4972002;28;20027;-61
2024/03/25 05:16:31;;;;;;;6.63;1.92;;;;;;;;;;4972094;28;20402;-62
2024/03/25 05:18:56;;;;;;;6.13;2.20;;;;;;;;;;4972236;28;20061;-62
2024/03/25 05:21:21;;;;;;;5.10;2.03;;;;;;;;;;4967012;28;20035;-63
2024/03/25 05:23:47;;;;;;;4.35;1.95;;;;;;;;;;4972299;28;20025;-60
2024/03/25 05:26:12;;;;;;;5.18;1.80;;;;;;;;;;4976001;28;20623;-61
2024/03/25 05:28:37;;;;;;;5.15;2.00;;;;;;;;;;4970278;28;20026;-62
2024/03/25 05:31:06;;;;;;;6.38;1.88;;;;;;;;;;4970879;28;20033;-60
2024/03/25 05:33:31;;;;;;;5.45;2.10;;;;;;;;;;4963284;28;20184;-61
2024/03/25 05:35:57;;;;;;;5.63;1.90;;;;;;;;;;4964417;28;20571;-62
2024/03/25 05:38:22;;;;;;;7.38;2.20;;;;;;;;;;4964275;28;20034;-60
2024/03/25 05:40:47;;;;;;;5.67;2.20;;;;;;;;;;4963537;28;20062;-61
2024/03/25 05:43:12;;;;;;;6.07;2.17;;;;;;;;;;4966037;28;20019;-62
2024/03/25 05:45:37;;;;;;;5.85;2.17;;;;;;;;;;4954379;28;20020;-60
2024/03/25 05:48:02;;;;;;;4.80;1.90;;;;;;;;;;4960940;28;20035;-60
2024/03/25 05:50:28;;;;;;;4.57;1.73;;;;;;;;;;4968214;28;20023;-61
2024/03/25 05:52:53;;;;;;;7.65;2.30;;;;;;;;;;4977370;28;20549;-62
2024/03/25 05:55:18;;;;;;;7.63;2.30;;;;;;;;;;4980408;28;20050;-61
2024/03/25 05:57:43;;;;;;;6.60;2.30;;;;;;;;;;4958073;28;20426;-60
2024/03/25 06:00:11;;;;;;;6.38;1.90;;;;;;;;;;4966516;28;20438;-61
2024/03/25 06:02:37;;;;;;;4.53;1.50;;;;;;;;;;4968094;28;20029;-60
2024/03/25 06:05:02;;;;;;;3.97;1.40;;;;;;;;;;4958896;28;20015;-61
2024/03/25 06:07:27;;;;;;;4.40;1.52;;;;;;;;;;4974510;28;20041;-63
2024/03/25 06:09:52;;;;;;;7.75;2.85;;;;;;;;;;4994698;28;20020;-62
2024/03/25 06:12:18;;;;;;;5.90;1.60;;;;;;;;;;4998589;28;20042;-61
2024/03/25 06:14:43;;;;;;;4.40;1.70;;;;;;;;;;5004322;28;20079;-62
2024/03/25 06:17:08;;;;;;;5.82;1.80;;;;;;;;;;4975965;28;20030;-62
2024/03/25 06:19:34;;;;;;;5.72;1.75;;;;;;;;;;4987775;28;20060;-60
2024/03/25 06:21:59;;;;;;;6.10;2.20;;;;;;;;;;4981284;28;20041;-61
2024/03/25 06:24:24;;;;;;;5.65;2.40;;;;;;;;;;4989707;28;20023;-62
2024/03/25 06:26:50;;;;;;;6.38;2.20;;;;;;;;;;4989503;28;20061;-63
2024/03/25 06:29:15;;;;;;;5.18;2.30;;;;;;;;;;4994488;28;20031;-62
2024/03/25 06:34:26;;;;;;;4.88;1.98;;;;;;;;;;4966022;28;20030;-61
2024/03/25 06:36:51;;;;;;;5.87;1.80;;;;;;;;;;4972011;28;20502;-62
2024/03/25 06:39:16;;;;;;;5.10;1.77;;;;;;;;;;4968708;28;20046;-61
2024/03/25 06:41:41;;;;;;;4.40;1.70;;;;;;;;;;4982224;28;20022;-61
2024/03/25 06:44:07;;;;;;;7.05;2.10;;;;;;;;;;4979707;28;20030;-62
2024/03/25 06:46:32;;;;;;;6.83;1.90;;;;;;;;;;4981248;28;20041;-62
2024/03/25 06:48:57;;;;;;;4.47;1.70;;;;;;;;;;4989646;28;20080;-62
2024/03/25 06:51:22;;;;;;;5.87;1.80;;;;;;;;;;4981544;28;20078;-62
2024/03/25 06:53:47;;;;;;;4.90;1.50;;;;;;;;;;4969478;28;20475;-63
2024/03/25 06:56:12;;;;;;;5.32;1.23;;;;;;;;;;4969506;28;20062;-63
2024/03/25 06:58:39;;;;;;;5.90;1.27;;;;;;;;;;4955468;28;20031;-61
2024/03/25 07:01:06;;;;;;;4.35;1.30;;;;;;;;;;4964121;28;20034;-61
2024/03/25 07:03:31;;;;;;;6.13;1.33;;;;;;;;;;4966329;28;20035;-62
2024/03/25 07:05:57;;;;;;;4.60;1.15;;;;;;;;;;4970005;28;20034;-61
2024/03/25 07:08:23;;;;;;;4.13;1.07;;;;;;;;;;4969584;28;20475;-61
2024/03/25 07:10:49;;;;;;;4.30;1.20;;;;;;;;;;4959405;28;20023;-62
2024/03/25 07:13:14;;;;;;;4.25;1.02;;;;;;;;;;4972201;28;20038;-61
2024/03/25 07:15:42;;;;;;;4.63;1.10;;;;;;;;;;4981208;28;20050;-62
2024/03/25 07:18:07;;;;;;;3.45;1.00;;;;;;;;;;4969901;28;20674;-63
2024/03/25 07:20:33;;;;;;;5.60;1.73;;;;;;;;;;4969312;28;20057;-62
2024/03/25 07:22:58;;;;;;;5.55;1.33;;;;;;;;;;4967681;28;20026;-62
2024/03/25 07:25:24;;;;;;;3.83;1.30;;;;;;;;;;4968486;28;20402;-62
2024/03/25 07:27:49;;;;;;;7.45;1.55;;;;;;;;;;4969462;28;20072;-62
2024/03/25 07:30:15;;;;;;;5.53;1.67;;;;;;;;;;4961140;28;20031;-62
2024/03/25 07:32:40;;;;;;;4.72;1.42;;;;;;;;;;4968771;28;20479;-60
2024/03/25 07:35:07;;;;;;;7.90;1.80;;;;;;;;;;4966416;28;20344;-62
2024/03/25 07:37:32;;;;;;;5.32;1.30;;;;;;;;;;4969895;28;20114;-62
2024/03/25 07:39:57;;;;;;;5.55;1.50;;;;;;;;;;4969482;28;20065;-62
2024/03/25 07:42:22;;;;;;;6.07;1.48;;;;;;;;;;4970887;28;20451;-62
2024/03/25 07:44:47;;;;;;;5.77;1.50;;;;;;;;;;4967406;28;20019;-61
2024/03/25 07:47:13;;;;;;;4.57;1.50;;;;;;;;;;4981761;28;20031;-62
2024/03/25 07:49:39;;;;;;;3.92;1.30;;;;;;;;;;4958665;28;20417;-60
2024/03/25 07:52:04;;;;;;;4.07;1.20;;;;;;;;;;4991119;28;20018;-62
2024/03/25 07:54:30;;;;;;;3.73;1.20;;;;;;;;;;4972799;28;20102;-62
2024/03/25 07:56:55;;;;;;;5.38;1.50;;;;;;;;;;4957525;28;20022;-61
2024/03/25 07:59:20;;;;;;;4.43;1.30;;;;;;;;;;4967063;28;20027;-61
2024/03/25 08:01:45;;;;;;;3.83;1.20;;;;;;;;;;4973647;28;20038;-62
2024/03/25 08:04:10;;;;;;;5.07;1.50;;;;;;;;;;4984737;28;20049;-65
2024/03/25 08:06:35;;;;;;;3.63;1.30;;;;;;;;;;4992758;28;20042;-62
2024/03/25 08:09:00;;;;;;;7.03;1.48;;;;;;;;;;4993283;28;20590;-63
2024/03/25 08:11:26;;;;;;;5.17;1.37;;;;;;;;;;4993901;28;20037;-62
2024/03/25 08:13:52;;;;;;;6.35;1.60;;;;;;;;;;4992277;28;20440;-61
2024/03/25 08:16:17;;;;;;;5.13;1.40;;;;;;;;;;4985380;28;20034;-60
2024/03/25 08:18:42;;;;;;;5.47;1.10;;;;;;;;;;4983777;28;20022;-60
2024/03/25 08:21:07;;;;;;;4.50;1.30;;;;;;;;;;4992479;28;20014;-61
2024/03/25 08:23:32;;;;;;;4.97;1.48;;;;;;;;;;4992201;28;20034;-61
2024/03/25 08:25:57;;;;;;;5.20;1.30;;;;;;;;;;4991865;28;20017;-61
2024/03/25 08:28:23;;;;;;;4.28;1.40;;;;;;;;;;4972835;28;20058;-60
2024/03/25 08:30:48;;;;;;;4.43;1.40;;;;;;;;;;4969304;28;20023;-61
2024/03/25 08:33:14;;;;;;;4.50;1.50;;;;;;;;;;4979379;28;20068;-62
2024/03/25 08:35:39;;;;;;;4.80;1.60;;;;;;;;;;4972561;28;20464;-61
2024/03/25 08:38:04;;;;;;;4.53;1.80;;;;;;;;;;4972165;28;20058;-60
2024/03/25 08:40:29;;;;;;;4.18;1.65;;;;;;;;;;4980150;28;20019;-61
2024/03/25 08:42:54;;;;;;;6.05;1.67;;;;;;;;;;4989710;28;20024;-61
2024/03/25 08:45:20;;;;;;;5.23;1.60;;;;;;;;;;4983080;28;20034;-61
2024/03/25 08:47:45;;;;;;;5.17;1.77;;;;;;;;;;4985768;28;20031;-62
2024/03/25 08:50:10;;;;;;;6.43;2.08;;;;;;;;;;4971690;28;20031;-61
2024/03/25 08:52:35;;;;;;;4.95;1.92;;;;;;;;;;4972044;28;20035;-62
2024/03/25 08:55:00;;;;;;;4.45;1.88;;;;;;;;;;4972761;28;20115;-62
2024/03/25 08:57:27;;;;;;;5.13;1.67;;;;;;;;;;4978158;28;20034;-62
2024/03/25 08:59:52;;;;;;;5.97;1.90;;;;;;;;;;4983469;28;20033;-61
2024/03/25 09:02:17;;;;;;;4.37;1.50;;;;;;;;;;4990395;28;20022;-60
2024/03/25 09:04:42;;;;;;;6.07;1.60;;;;;;;;;;4978279;28;20128;-60
2024/03/25 09:07:08;;;;;;;5.73;1.70;;;;;;;;;;4983860;28;20080;-60
2024/03/25 09:12:17;;;;;;;5.95;2.30;;;;;;;;;;4990390;28;20033;-61
2024/03/25 09:14:43;;;;;;;5.32;2.00;;;;;;;;;;4990620;28;20030;-60
2024/03/25 09:17:08;;;;;;;4.35;1.60;;;;;;;;;;4988258;28;20041;-61
2024/03/25 09:19:34;;;;;;;4.13;1.70;;;;;;;;;;4984488;28;20026;-61
2024/03/25 09:21:59;;;;;;;4.00;1.48;;;;;;;;;;4992017;28;20022;-60
2024/03/25 09:24:24;;;;;;;4.38;1.60;;;;;;;;;;4991487;28;20378;-60
2024/03/25 09:26:50;;;;;;;4.50;1.80;;;;;;;;;;4985281;28;20034;-61
2024/03/25 09:29:15;;;;;;;6.75;1.90;;;;;;;;;;4972533;28;20023;-61
2024/03/25 09:31:41;;;;;;;7.00;1.97;;;;;;;;;;4961430;28;20467;-63
2024/03/25 09:34:06;;;;;;;7.53;1.73;;;;;;;;;;4958733;28;20043;-61
2024/03/25 09:36:31;;;;;;;5.00;1.50;;;;;;;;;;4980180;28;20037;-61
2024/03/25 09:38:56;;;;;;;4.72;1.33;;;;;;;;;;4974524;28;20030;-61
2024/03/25 09:41:22;;;;;;;3.30;1.20;;;;;;;;;;4975004;28;20030;-62
2024/03/25 09:43:53;;;;;;;5.97;1.50;;;;;;;;;;4974732;28;20034;-62
2024/03/25 09:46:18;;;;;;;4.43;1.40;;;;;;;;;;4977525;28;20046;-62
2024/03/25 09:48:44;;;;;;;4.77;1.23;;;;;;;;;;4985829;28;20079;-62
2024/03/25 09:51:09;;;;;;;4.18;1.40;;;;;;;;;;4977119;28;20398;-62
2024/03/25 09:53:35;;;;;;;3.28;1.33;;;;;;;;;;4974555;28;20080;-63
2024/03/25 09:56:00;;;;;;;3.50;1.20;;;;;;;;;;4982636;28;20025;-61
2024/03/25 09:58:26;;;;;;;4.33;1.30;;;;;;;;;;4978186;28;20022;-61
2024/03/25 10:00:51;;;;;;;5.32;1.35;;;;;;;;;;4977175;28;20062;-60
2024/03/25 10:03:16;;;;;;;4.10;1.30;;;;;;;;;;4975033;28;20110;-61
2024/03/25 10:05:41;;;;;;;4.53;1.50;;;;;;;;;;4969432;28;20027;-62
2024/03/25 10:08:07;;;;;;;3.10;1.33;;;;;;;;;;4970047;28;20027;-62
2024/03/25 10:10:33;;;;;;;4.97;1.43;;;;;;;;;;4979652;28;20029;-60
2024/03/25 10:12:58;;;;;;;4.97;1.40;;;;;;;;;;4989640;28;20057;-61
2024/03/25 10:15:23;;;;;;;4.43;1.60;;;;;;;;;;4990257;28;20046;-60
2024/03/25 10:17:49;;;;;;;5.70;1.70;;;;;;;;;;4990588;28;20034;-61
2024/03/25 10:20:16;;;;;;;5.38;1.60;;;;;;;;;;4990630;28;20482;-60
2024/03/25 10:22:42;;;;;;;5.55;1.90;;;;;;;;;;4983566;28;20034;-60
2024/03/25 10:25:08;;;;;;;4.43;1.58;;;;;;;;;;4982022;28;20018;-61
2024/03/25 10:27:33;;;;;;;5.88;1.40;;;;;;;;;;4977617;28;20039;-61
2024/03/25 10:29:58;;;;;;;6.27;1.40;;;;;;;;;;4970809;28;20384;-61
2024/03/25 10:32:24;;;;;;;6.13;1.60;;;;;;;;;;4971498;28;20050;-61
2024/03/25 10:34:50;;;;;;;4.25;1.45;;;;;;;;;;4973921;28;20530;-62
2024/03/25 10:37:15;;;;;;;3.95;1.52;;;;;;;;;;4966014;28;20061;-61
2024/03/25 10:39:50;;;;;;;5.10;1.38;;;;;;;;;;4982008;28;20486;-62
2024/03/25 10:42:18;;;;;;;6.38;2.30;;;;;;;;;;4990061;28;20030;-60
2024/03/25 10:44:43;;;;;;;4.55;1.50;;;;;;;;;;4974935;28;20501;-61
2024/03/25 10:47:11;;;;;;;4.72;1.52;;;;;;;;;;4970537;28;20018;-61
2024/03/25 10:49:42;;;;;;;5.65;1.83;;;;;;;;;;4965290;28;20034;-60
2024/03/25 10:52:08;;;;;;;4.72;1.50;;;;;;;;;;4981092;28;20019;-63
2024/03/25 10:54:34;;;;;;;4.90;1.42;;;;;;;;;;4990593;28;20030;-61
2024/03/25 10:56:59;;;;;;;4.70;1.20;;;;;;;;;;4989980;28;20478;-61
2024/03/25 10:59:26;;;;;;;7.10;1.40;;;;;;;;;;4989719;28;20048;-61
2024/03/25 11:01:51;;;;;;;4.22;1.17;;;;;;;;;;4990286;28;20535;-61
2024/03/25 11:04:17;;;;;;;4.70;1.17;;;;;;;;;;5011640;28;20038;-62
2024/03/25 11:06:42;;;;;;;4.97;1.35;;;;;;;;;;4981290;28;20026;-61
2024/03/25 11:09:07;;;;;;;3.78;1.20;;;;;;;;;;4995172;28;20027;-62
2024/03/25 11:11:35;;;;;;;4.35;1.35;;;;;;;;;;4995827;28;20398;-60
2024/03/25 11:14:03;;;;;;;5.13;1.83;;;;;;;;;;4995829;28;20023;-62
2024/03/25 11:16:30;;;;;;;4.40;1.25;;;;;;;;;;4998684;28;20031;-65
2024/03/25 11:18:55;;;;;;;4.05;1.10;;;;;;;;;;4988005;28;20482;-61
2024/03/25 11:21:26;;;;;;;3.60;1.27;;;;;;;;;;4983272;28;20019;-61
2024/03/25 11:23:51;;;;;;;4.50;1.27;;;;;;;;;;4984125;28;20031;-60
2024/03/25 11:26:39;;;;;;;4.73;1.30;;;;;;;;;;4979087;28;20015;-60
2024/03/25 11:29:05;;;;;;;4.20;1.60;;;;;;;;;;4969870;28;20414;-60
2024/03/25 11:31:32;;;;;;;3.60;1.17;;;;;;;;;;4970562;28;20023;-61
2024/03/25 11:33:57;;;;;;;3.38;1.30;;;;;;;;;;4974505;28;20046;-62
2024/03/25 11:36:25;;;;;;;4.18;1.15;;;;;;;;;;4977105;28;20015;-61
2024/03/25 11:39:09;;;;;;;5.15;1.42;;;;;;;;;;4974678;28;20026;-62
2024/03/25 11:41:41;;;;;;;5.75;1.50;;;;;;;;;;4970669;28;20022;-61
2024/03/25 11:44:09;;;;;;;3.60;1.25;;;;;;;;;;4950933;28;20023;-61
2024/03/25 11:46:38;;;;;;;4.45;1.50;;;;;;;;;;4952587;28;20065;-62
2024/03/25 11:49:07;;;;;;;4.65;1.52;;;;;;;;;;4979803;28;20386;-60
2024/03/25 11:51:35;;;;;;;6.18;1.50;;;;;;;;;;4978531;28;20027;-62
2024/03/25 11:54:03;;;;;;;3.05;1.15;;;;;;;;;;4964933;28;20027;-61
2024/03/25 11:56:29;;;;;;;4.53;1.30;;;;;;;;;;4978149;28;20394;-62
2024/03/25 11:58:54;;;;;;;5.18;1.40;;;;;;;;;;4971275;28;20030;-62
2024/03/25 12:01:19;;;;;;;4.30;1.30;;;;;;;;;;4969403;28;20019;-62
2024/03/25 12:03:44;;;;;;;3.60;1.27;;;;;;;;;;4968802;28;20025;-61
2024/03/25 12:06:09;;;;;;;3.42;1.20;;;;;;;;;;4968863;28;20021;-61
2024/03/25 12:08:44;;;;;;;3.37;1.27;;;;;;;;;;4968107;28;20031;-61
2024/03/25 12:11:19;;;;;;;4.18;1.15;;;;;;;;;;4969275;28;20018;-62
2024/03/25 12:13:44;;;;;;;4.80;1.00;;;;;;;;;;4969583;28;20084;-61
2024/03/25 12:16:09;;;;;;;3.30;1.13;;;;;;;;;;4968108;28;20046;-62
2024/03/25 12:18:40;;;;;;;3.90;1.13;;;;;;;;;;4972275;28;20053;-62
2024/03/25 12:21:05;;;;;;;3.05;1.00;;;;;;;;;;4974980;28;20031;-62
2024/03/25 12:23:31;;;;;;;3.60;1.10;;;;;;;;;;4973797;28;20050;-60
2024/03/25 12:25:58;;;;;;;3.22;1.10;;;;;;;;;;4971155;28;20420;-62
2024/03/25 12:28:23;;;;;;;4.00;1.20;;;;;;;;;;4977166;28;20212;-61
2024/03/25 12:30:50;;;;;;;2.60;0.87;;;;;;;;;;4967926;28;20628;-61
2024/03/25 12:33:16;;;;;;;3.35;1.02;;;;;;;;;;4968768;28;20019;-60
2024/03/25 12:35:41;;;;;;;2.97;1.10;;;;;;;;;;4968816;28;20481;-61
2024/03/25 12:38:06;;;;;;;3.30;1.10;;;;;;;;;;4967181;28;20042;-60
2024/03/25 12:40:31;;;;;;;3.70;1.23;;;;;;;;;;4968539;28;20058;-60
2024/03/25 12:42:56;;;;;;;4.17;1.10;;;;;;;;;;4978347;28;20023;-61
2024/03/25 12:45:23;;;;;;;3.57;1.10;;;;;;;;;;4969852;28;20386;-60
2024/03/25 12:47:52;;;;;;;3.00;1.15;;;;;;;;;;4973077;28;20049;-62
2024/03/25 12:50:18;;;;;;;3.58;1.35;;;;;;;;;;4972403;28;20023;-62
2024/03/25 12:52:43;;;;;;;3.17;1.30;;;;;;;;;;4972025;28;20427;-61
2024/03/25 12:55:09;;;;;;;2.63;0.90;;;;;;;;;;4972294;28;20107;-61
2024/03/25 12:57:35;;;;;;;2.88;0.90;;;;;;;;;;4977431;28;20026;-62
2024/03/25 13:00:00;;;;;;;4.25;1.00;;;;;;;;;;4995954;28;20051;-62
2024/03/25 13:02:25;;;;;;;3.37;1.00;;;;;;;;;;5074110;28;20115;-62
2024/03/25 13:04:50;;;;;;;4.53;1.20;;;;;;;;;;5074235;28;20521;-62
2024/03/25 13:07:16;;;;;;;3.47;1.10;;;;;;;;;;5024371;28;20035;-63
2024/03/25 13:09:41;;;;;;;5.40;1.10;;;;;;;;;;4978582;28;20092;-62
2024/03/25 13:12:06;;;;;;;3.88;1.20;;;;;;;;;;4990964;28;20032;-61
2024/03/25 13:14:31;;;;;;;3.77;1.07;;;;;;;;;;4991242;28;20053;-60
2024/03/25 13:16:56;;;;;;;3.63;1.20;;;;;;;;;;4991609;28;20109;-62
2024/03/25 13:19:23;;;;;;;5.75;1.58;;;;;;;;;;4991079;28;20022;-60
2024/03/25 13:21:49;;;;;;;3.55;1.20;;;;;;;;;;4986692;28;20019;-62
2024/03/25 13:24:14;;;;;;;5.40;1.30;;;;;;;;;;4984443;28;20022;-62
2024/03/25 13:26:39;;;;;;;3.80;1.20;;;;;;;;;;4971347;28;20027;-61
2024/03/25 13:29:04;;;;;;;3.13;1.25;;;;;;;;;;4993386;28;20570;-61
2024/03/25 13:31:30;;;;;;;3.38;1.17;;;;;;;;;;4998960;28;20018;-63
2024/03/25 13:33:55;;;;;;;3.10;1.00;;;;;;;;;;4999441;28;20034;-61
2024/03/25 13:36:20;;;;;;;4.13;1.00;;;;;;;;;;4969131;28;20454;-61
2024/03/25 13:38:45;;;;;;;3.00;0.90;;;;;;;;;;4969728;28;20019;-62
2024/03/25 13:41:10;;;;;;;4.20;1.05;;;;;;;;;;4979460;28;20458;-61
2024/03/25 13:43:36;;;;;;;4.33;1.07;;;;;;;;;;4969706;28;20037;-61
2024/03/25 13:46:01;;;;;;;2.97;0.80;;;;;;;;;;4991536;28;20035;-62
2024/03/25 13:48:26;;;;;;;3.67;0.98;;;;;;;;;;4972136;28;20036;-62
2024/03/25 13:50:53;;;;;;;4.18;0.88;;;;;;;;;;4971229;28;20042;-61
2024/03/25 13:53:18;;;;;;;3.88;1.27;;;;;;;;;;4972109;28;20030;-61
2024/03/25 13:55:43;;;;;;;5.00;1.05;;;;;;;;;;4976299;28;20022;-61
2024/03/25 13:58:10;;;;;;;2.85;0.90;;;;;;;;;;4968522;28;20138;-61
2024/03/25 14:00:36;;;;;;;4.50;1.00;;;;;;;;;;4991400;28;20038;-62
2024/03/25 14:03:01;;;;;;;3.13;1.10;;;;;;;;;;4964534;28;20027;-62
2024/03/25 14:05:27;;;;;;;4.45;1.08;;;;;;;;;;4965187;28;20019;-63
2024/03/25 14:07:52;;;;;;;4.83;1.00;;;;;;;;;;4970682;28;20026;-62
2024/03/25 14:10:17;;;;;;;3.97;0.98;;;;;;;;;;4969196;28;20442;-61
2024/03/25 14:12:42;;;;;;;2.85;0.90;;;;;;;;;;4964624;28;20436;-61
2024/03/25 14:15:08;;;;;;;3.60;1.07;;;;;;;;;;4966703;28;20034;-61
2024/03/25 14:17:33;;;;;;;4.90;1.33;;;;;;;;;;4970718;28;20042;-62
2024/03/25 14:19:58;;;;;;;3.83;1.13;;;;;;;;;;4971153;28;20023;-62
2024/03/25 14:22:24;;;;;;;4.57;1.40;;;;;;;;;;4971136;28;20446;-61
2024/03/25 14:24:49;;;;;;;3.97;1.23;;;;;;;;;;4965596;28;20375;-60
2024/03/25 14:27:14;;;;;;;4.17;1.10;;;;;;;;;;4980490;28;20026;-62
2024/03/25 14:29:40;;;;;;;4.18;1.00;;;;;;;;;;4980792;28;20068;-62
2024/03/25 14:32:05;;;;;;;4.25;1.10;;;;;;;;;;4989412;28;20030;-61
2024/03/25 14:34:30;;;;;;;4.30;1.00;;;;;;;;;;4978801;28;20023;-60
2024/03/25 14:36:56;;;;;;;4.32;1.08;;;;;;;;;;4979880;28;20034;-61
2024/03/25 14:39:21;;;;;;;3.90;1.05;;;;;;;;;;4972355;28;20026;-62